createdAt,value
2017-01-23T00:00:39.826Z,0
2017-01-23T00:01:20.432Z,0
2017-01-23T00:02:01.006Z,0
2017-01-23T00:02:41.600Z,0
2017-01-23T00:03:22.233Z,0
2017-01-23T00:04:02.840Z,0
2017-01-23T00:04:43.473Z,0
2017-01-23T00:05:24.027Z,0
2017-01-23T00:06:04.665Z,0
2017-01-23T00:06:45.239Z,0
2017-01-23T00:07:25.853Z,0
2017-01-23T00:08:06.494Z,0
2017-01-23T00:08:47.168Z,0
2017-01-23T00:09:27.831Z,0
2017-01-23T00:10:08.456Z,0
2017-01-23T00:10:49.140Z,0
2017-01-23T00:11:30.786Z,0
2017-01-23T00:12:11.358Z,0
2017-01-23T00:12:51.985Z,0
2017-01-23T00:13:32.646Z,0
2017-01-23T00:14:13.294Z,0
2017-01-23T00:14:53.945Z,0
2017-01-23T00:15:34.516Z,0
2017-01-23T00:16:15.148Z,0
2017-01-23T00:16:55.796Z,0
2017-01-23T00:17:36.460Z,0
2017-01-23T00:18:17.108Z,0
2017-01-23T00:18:57.810Z,0
2017-01-23T00:19:38.415Z,0
2017-01-23T00:20:19.087Z,0
2017-01-23T00:21:01.563Z,0
2017-01-23T00:21:42.216Z,0
2017-01-23T00:22:22.888Z,0
2017-01-23T00:23:03.541Z,0
2017-01-23T00:23:44.196Z,0
2017-01-23T00:24:24.867Z,0
2017-01-23T00:25:05.499Z,0
2017-01-23T00:25:46.133Z,0
2017-01-23T00:26:26.805Z,0
2017-01-23T00:27:07.480Z,0
2017-01-23T00:27:48.138Z,0
2017-01-23T00:28:28.763Z,0
2017-01-23T00:29:09.344Z,0
2017-01-23T00:29:49.921Z,0
2017-01-23T00:30:30.503Z,0
2017-01-23T00:31:11.170Z,0
2017-01-23T00:31:51.753Z,0
2017-01-23T00:32:32.361Z,0
2017-01-23T00:33:12.900Z,0
2017-01-23T00:33:53.491Z,0
2017-01-23T00:34:34.129Z,0
2017-01-23T00:35:14.783Z,0
2017-01-23T00:35:55.434Z,0
2017-01-23T00:36:36.086Z,0
2017-01-23T00:37:16.738Z,0
2017-01-23T00:37:57.391Z,0
2017-01-23T00:38:38.045Z,0
2017-01-23T00:39:18.611Z,0
2017-01-23T00:39:59.247Z,0
2017-01-23T00:40:39.900Z,0
2017-01-23T00:41:20.462Z,0
2017-01-23T00:42:01.102Z,0
2017-01-23T00:42:41.757Z,0
2017-01-23T00:43:22.319Z,0
2017-01-23T00:44:02.962Z,0
2017-01-23T00:44:45.154Z,0
2017-01-23T00:45:25.799Z,0
2017-01-23T00:46:06.461Z,0
2017-01-23T00:46:48.088Z,0
2017-01-23T00:47:28.699Z,0
2017-01-23T00:48:09.324Z,0
2017-01-23T00:48:49.891Z,0
2017-01-23T00:49:31.533Z,0
2017-01-23T00:50:12.213Z,0
2017-01-23T00:50:53.312Z,0
2017-01-23T00:51:34.602Z,0
2017-01-23T00:52:15.204Z,0
2017-01-23T00:52:55.845Z,0
2017-01-23T00:53:37.354Z,0
2017-01-23T00:54:18.008Z,0
2017-01-23T00:54:58.666Z,0
2017-01-23T00:55:39.312Z,0
2017-01-23T00:56:19.967Z,0
2017-01-23T00:57:01.659Z,0
2017-01-23T00:57:42.295Z,0
2017-01-23T00:58:22.946Z,0
2017-01-23T00:59:03.515Z,0
2017-01-23T00:59:44.117Z,0
2017-01-23T01:00:24.673Z,0
2017-01-23T01:01:05.308Z,0
2017-01-23T01:01:45.968Z,0
2017-01-23T01:02:26.533Z,0
2017-01-23T01:03:07.172Z,0
2017-01-23T01:03:47.835Z,0
2017-01-23T01:04:28.475Z,0
2017-01-23T01:05:10.162Z,0
2017-01-23T01:05:50.818Z,0
2017-01-23T01:06:31.447Z,0
2017-01-23T01:07:12.118Z,0
2017-01-23T01:07:53.789Z,0
2017-01-23T01:08:35.468Z,0
2017-01-23T01:09:16.119Z,0
2017-01-23T01:09:56.771Z,0
2017-01-23T01:10:37.424Z,0
2017-01-23T01:11:18.076Z,0
2017-01-23T01:11:58.730Z,0
2017-01-23T01:12:39.381Z,0
2017-01-23T01:13:20.028Z,0
2017-01-23T01:14:00.689Z,0
2017-01-23T01:14:41.347Z,0
2017-01-23T01:15:21.994Z,0
2017-01-23T01:16:02.648Z,0
2017-01-23T01:16:43.307Z,0
2017-01-23T01:17:24.991Z,0
2017-01-23T01:18:05.636Z,0
2017-01-23T01:18:48.227Z,0
2017-01-23T01:19:28.879Z,0
2017-01-23T01:20:10.561Z,0
2017-01-23T01:20:51.218Z,0
2017-01-23T01:21:31.869Z,0
2017-01-23T01:22:12.518Z,0
2017-01-23T01:22:53.176Z,0
2017-01-23T01:23:33.829Z,0
2017-01-23T01:24:16.437Z,0
2017-01-23T01:24:57.075Z,0
2017-01-23T01:25:38.580Z,0
2017-01-23T01:26:19.204Z,0
2017-01-23T01:26:59.849Z,0
2017-01-23T01:27:40.503Z,0
2017-01-23T01:28:21.178Z,0
2017-01-23T01:29:01.819Z,0
2017-01-23T01:29:43.403Z,0
2017-01-23T01:30:24.057Z,0
2017-01-23T01:31:04.689Z,0
2017-01-23T01:31:45.351Z,0
2017-01-23T01:32:25.994Z,0
2017-01-23T01:33:06.645Z,0
2017-01-23T01:33:47.300Z,0
2017-01-23T01:34:28.883Z,0
2017-01-23T01:35:09.536Z,0
2017-01-23T01:35:50.190Z,0
2017-01-23T01:36:30.843Z,0
2017-01-23T01:37:11.487Z,0
2017-01-23T01:37:52.150Z,0
2017-01-23T01:38:32.799Z,0
2017-01-23T01:39:13.448Z,0
2017-01-23T01:39:54.102Z,0
2017-01-23T01:40:34.771Z,0
2017-01-23T01:41:15.401Z,0
2017-01-23T01:41:57.092Z,0
2017-01-23T01:42:37.741Z,0
2017-01-23T01:43:18.390Z,0
2017-01-23T01:43:59.062Z,0
2017-01-23T01:44:39.738Z,0
2017-01-23T01:45:20.294Z,0
2017-01-23T01:46:00.913Z,0
2017-01-23T01:46:41.548Z,0
2017-01-23T01:47:23.179Z,0
2017-01-23T01:48:03.750Z,0
2017-01-23T01:48:44.338Z,0
2017-01-23T01:49:24.992Z,0
2017-01-23T01:50:05.682Z,0
2017-01-23T01:50:46.245Z,0
2017-01-23T01:51:26.834Z,0
2017-01-23T01:52:07.497Z,0
2017-01-23T01:52:49.111Z,0
2017-01-23T01:53:29.676Z,0
2017-01-23T01:54:10.268Z,0
2017-01-23T01:54:50.928Z,0
2017-01-23T01:55:31.520Z,0
2017-01-23T01:56:12.119Z,0
2017-01-23T01:56:52.802Z,0
2017-01-23T01:57:33.428Z,0
2017-01-23T01:58:14.037Z,0
2017-01-23T01:58:54.610Z,0
2017-01-23T01:59:35.203Z,0
2017-01-23T02:00:15.834Z,0
2017-01-23T02:00:56.432Z,0
2017-01-23T02:01:37.040Z,0
2017-01-23T02:02:17.697Z,0
2017-01-23T02:02:58.359Z,0
2017-01-23T02:03:38.945Z,0
2017-01-23T02:04:19.491Z,0
2017-01-23T02:05:00.095Z,0
2017-01-23T02:05:40.770Z,0
2017-01-23T02:06:21.345Z,0
2017-01-23T02:07:01.908Z,0
2017-01-23T02:07:42.511Z,0
2017-01-23T02:08:23.154Z,0
2017-01-23T02:09:03.761Z,0
2017-01-23T02:09:44.333Z,0
2017-01-23T02:10:24.904Z,0
2017-01-23T02:11:05.591Z,0
2017-01-23T02:11:46.166Z,0
2017-01-23T02:12:26.720Z,0
2017-01-23T02:13:08.335Z,0
2017-01-23T02:13:48.992Z,0
2017-01-23T02:14:29.656Z,0
2017-01-23T02:15:10.296Z,0
2017-01-23T02:15:50.954Z,0
2017-01-23T02:16:31.533Z,0
2017-01-23T02:17:12.280Z,0
2017-01-23T02:17:52.928Z,0
2017-01-23T02:18:33.567Z,0
2017-01-23T02:19:14.224Z,0
2017-01-23T02:19:54.869Z,0
2017-01-23T02:20:35.489Z,0
2017-01-23T02:21:16.071Z,0
2017-01-23T02:21:56.720Z,0
2017-01-23T02:22:37.387Z,0
2017-01-23T02:23:17.986Z,0
2017-01-23T02:23:59.083Z,0
2017-01-23T02:24:39.663Z,0
2017-01-23T02:25:20.257Z,0
2017-01-23T02:26:00.868Z,0
2017-01-23T02:26:41.507Z,0
2017-01-23T02:27:22.163Z,0
2017-01-23T02:28:03.782Z,0
2017-01-23T02:28:44.382Z,0
2017-01-23T02:29:24.960Z,0
2017-01-23T02:30:05.583Z,0
2017-01-23T02:30:46.249Z,0
2017-01-23T02:31:26.895Z,0
2017-01-23T02:32:07.553Z,0
2017-01-23T02:32:48.203Z,0
2017-01-23T02:33:28.864Z,0
2017-01-23T02:34:09.550Z,0
2017-01-23T02:34:50.112Z,0
2017-01-23T02:35:30.722Z,0
2017-01-23T02:36:11.398Z,0
2017-01-23T02:36:52.059Z,0
2017-01-23T02:37:32.627Z,0
2017-01-23T02:38:13.238Z,0
2017-01-23T02:38:53.888Z,0
2017-01-23T02:39:34.580Z,0
2017-01-23T02:40:15.123Z,0
2017-01-23T02:40:56.745Z,0
2017-01-23T02:41:37.409Z,0
2017-01-23T02:42:18.822Z,0
2017-01-23T02:42:59.382Z,0
2017-01-23T02:43:40.007Z,0
2017-01-23T02:44:20.639Z,0
2017-01-23T02:45:01.219Z,0
2017-01-23T02:45:41.896Z,0
2017-01-23T02:46:22.492Z,0
2017-01-23T02:47:03.113Z,0
2017-01-23T02:47:43.785Z,0
2017-01-23T02:48:24.468Z,0
2017-01-23T02:49:05.039Z,0
2017-01-23T02:49:45.646Z,0
2017-01-23T02:50:26.349Z,0
2017-01-23T02:51:06.956Z,0
2017-01-23T02:51:47.603Z,0
2017-01-23T02:52:28.253Z,0
2017-01-23T02:53:08.982Z,0
2017-01-23T02:53:49.577Z,0
2017-01-23T02:54:30.325Z,0
2017-01-23T02:55:12.008Z,0
2017-01-23T02:55:52.646Z,0
2017-01-23T02:56:33.313Z,0
2017-01-23T02:57:13.962Z,0
2017-01-23T02:57:54.614Z,0
2017-01-23T02:58:37.255Z,0
2017-01-23T02:59:18.788Z,0
2017-01-23T02:59:59.499Z,0
2017-01-23T03:00:40.141Z,0
2017-01-23T03:01:20.874Z,0
2017-01-23T03:02:01.495Z,0
2017-01-23T03:02:42.160Z,0
2017-01-23T03:03:22.813Z,0
2017-01-23T03:04:03.453Z,0
2017-01-23T03:04:44.055Z,0
2017-01-23T03:05:24.617Z,0
2017-01-23T03:06:06.239Z,0
2017-01-23T03:06:46.892Z,0
2017-01-23T03:07:27.516Z,0
2017-01-23T03:08:08.051Z,0
2017-01-23T03:08:48.635Z,0
2017-01-23T03:09:29.303Z,0
2017-01-23T03:10:10.142Z,0
2017-01-23T03:10:50.704Z,0
2017-01-23T03:11:31.260Z,0
2017-01-23T03:12:12.946Z,0
2017-01-23T03:12:53.631Z,0
2017-01-23T03:13:34.175Z,0
2017-01-23T03:14:14.836Z,0
2017-01-23T03:14:55.441Z,0
2017-01-23T03:15:36.095Z,0
2017-01-23T03:16:16.794Z,0
2017-01-23T03:16:58.448Z,0
2017-01-23T03:17:39.142Z,0
2017-01-23T03:18:19.735Z,0
2017-01-23T03:19:00.393Z,0
2017-01-23T03:19:41.035Z,0
2017-01-23T03:20:22.659Z,0
2017-01-23T03:21:03.211Z,0
2017-01-23T03:21:43.841Z,0
2017-01-23T03:22:24.468Z,0
2017-01-23T03:23:05.068Z,0
2017-01-23T03:23:45.646Z,0
2017-01-23T03:24:26.221Z,0
2017-01-23T03:25:06.874Z,0
2017-01-23T03:25:47.475Z,0
2017-01-23T03:26:28.045Z,0
2017-01-23T03:27:08.623Z,0
2017-01-23T03:27:49.289Z,0
2017-01-23T03:28:30.909Z,0
2017-01-23T03:29:11.461Z,0
2017-01-23T03:29:52.089Z,0
2017-01-23T03:30:32.723Z,0
2017-01-23T03:31:13.312Z,0
2017-01-23T03:31:53.878Z,0
2017-01-23T03:32:34.658Z,0
2017-01-23T03:33:17.271Z,0
2017-01-23T03:33:57.866Z,0
2017-01-23T03:34:38.474Z,0
2017-01-23T03:35:19.180Z,0
2017-01-23T03:35:59.912Z,0
2017-01-23T03:36:40.480Z,0
2017-01-23T03:37:21.041Z,0
2017-01-23T03:38:01.644Z,0
2017-01-23T03:38:43.109Z,0
2017-01-23T03:39:23.709Z,0
2017-01-23T03:40:04.257Z,0
2017-01-23T03:40:44.879Z,0
2017-01-23T03:41:25.522Z,0
2017-01-23T03:42:06.116Z,0
2017-01-23T03:42:46.671Z,0
2017-01-23T03:43:27.273Z,0
2017-01-23T03:44:07.924Z,0
2017-01-23T03:44:48.582Z,0
2017-01-23T03:45:29.233Z,0
2017-01-23T03:46:09.882Z,0
2017-01-23T03:46:50.541Z,0
2017-01-23T03:47:31.197Z,0
2017-01-23T03:48:11.866Z,0
2017-01-23T03:48:54.439Z,0
2017-01-23T03:49:35.117Z,0
2017-01-23T03:50:16.772Z,0
2017-01-23T03:50:57.447Z,0
2017-01-23T03:51:38.078Z,0
2017-01-23T03:52:18.766Z,0
2017-01-23T03:52:59.407Z,0
2017-01-23T03:53:40.055Z,0
2017-01-23T03:54:20.635Z,0
2017-01-23T03:55:01.191Z,0
2017-01-23T03:55:42.839Z,0
2017-01-23T03:56:23.464Z,0
2017-01-23T03:57:04.070Z,0
2017-01-23T03:57:44.622Z,0
2017-01-23T03:58:25.240Z,0
2017-01-23T03:59:05.877Z,0
2017-01-23T03:59:46.481Z,0
2017-01-23T04:00:27.081Z,0
2017-01-23T04:01:07.732Z,0
2017-01-23T04:01:49.091Z,0
2017-01-23T04:02:29.699Z,0
2017-01-23T04:03:10.270Z,0
2017-01-23T04:03:51.894Z,0
2017-01-23T04:04:32.527Z,0
2017-01-23T04:05:13.187Z,0
2017-01-23T04:05:53.871Z,0
2017-01-23T04:06:35.525Z,0
2017-01-23T04:07:16.192Z,0
2017-01-23T04:07:56.822Z,0
2017-01-23T04:08:37.494Z,0
2017-01-23T04:09:19.147Z,0
2017-01-23T04:09:59.824Z,0
2017-01-23T04:10:40.632Z,0
2017-01-23T04:11:21.311Z,0
2017-01-23T04:12:01.965Z,0
2017-01-23T04:12:42.641Z,0
2017-01-23T04:13:23.287Z,0
2017-01-23T04:14:03.927Z,0
2017-01-23T04:14:44.587Z,0
2017-01-23T04:15:25.276Z,0
2017-01-23T04:16:05.907Z,0
2017-01-23T04:16:47.590Z,0
2017-01-23T04:17:28.225Z,0
2017-01-23T04:18:08.954Z,0
2017-01-23T04:18:49.636Z,0
2017-01-23T04:19:30.219Z,0
2017-01-23T04:20:10.789Z,0
2017-01-23T04:20:51.378Z,0
2017-01-23T04:21:32.042Z,0
2017-01-23T04:22:12.633Z,0
2017-01-23T04:22:53.178Z,0
2017-01-23T04:23:33.796Z,0
2017-01-23T04:24:14.453Z,0
2017-01-23T04:24:55.104Z,0
2017-01-23T04:25:35.757Z,0
2017-01-23T04:26:16.410Z,0
2017-01-23T04:26:57.061Z,0
2017-01-23T04:27:37.705Z,0
2017-01-23T04:28:18.366Z,0
2017-01-23T04:28:59.021Z,0
2017-01-23T04:29:39.660Z,0
2017-01-23T04:30:20.331Z,0
2017-01-23T04:31:01.593Z,0
2017-01-23T04:31:42.232Z,0
2017-01-23T04:32:22.904Z,0
2017-01-23T04:33:03.551Z,0
2017-01-23T04:33:44.198Z,0
2017-01-23T04:34:24.793Z,0
2017-01-23T04:35:05.333Z,0
2017-01-23T04:35:45.961Z,0
2017-01-23T04:36:26.609Z,0
2017-01-23T04:37:07.304Z,0
2017-01-23T04:37:47.862Z,0
2017-01-23T04:38:28.479Z,0
2017-01-23T04:39:09.122Z,0
2017-01-23T04:39:49.784Z,0
2017-01-23T04:40:30.433Z,0
2017-01-23T04:41:11.077Z,0
2017-01-23T04:41:51.730Z,0
2017-01-23T04:42:32.382Z,0
2017-01-23T04:43:14.062Z,0
2017-01-23T04:43:54.713Z,0
2017-01-23T04:44:35.288Z,0
2017-01-23T04:45:17.721Z,0
2017-01-23T04:45:58.321Z,0
2017-01-23T04:46:38.892Z,0
2017-01-23T04:47:19.505Z,0
2017-01-23T04:48:00.163Z,0
2017-01-23T04:48:40.719Z,0
2017-01-23T04:49:21.361Z,0
2017-01-23T04:50:02.024Z,0
2017-01-23T04:50:42.675Z,0
2017-01-23T04:51:23.331Z,0
2017-01-23T04:52:03.986Z,0
2017-01-23T04:52:44.634Z,0
2017-01-23T04:53:25.286Z,0
2017-01-23T04:54:05.934Z,0
2017-01-23T04:54:46.502Z,0
2017-01-23T04:55:27.132Z,0
2017-01-23T04:56:07.789Z,0
2017-01-23T04:56:48.372Z,0
2017-01-23T04:57:28.998Z,0
2017-01-23T04:58:09.643Z,0
2017-01-23T04:58:50.206Z,0
2017-01-23T04:59:30.857Z,0
2017-01-23T05:00:11.521Z,0
2017-01-23T05:00:52.159Z,0
2017-01-23T05:01:32.815Z,0
2017-01-23T05:02:13.477Z,0
2017-01-23T05:02:54.124Z,0
2017-01-23T05:03:35.787Z,0
2017-01-23T05:04:16.458Z,0
2017-01-23T05:04:59.054Z,0
2017-01-23T05:05:39.628Z,0
2017-01-23T05:06:20.279Z,0
2017-01-23T05:07:00.939Z,0
2017-01-23T05:07:41.509Z,0
2017-01-23T05:08:23.133Z,0
2017-01-23T05:09:03.790Z,0
2017-01-23T05:09:44.352Z,0
2017-01-23T05:10:26.019Z,0
2017-01-23T05:11:07.742Z,0
2017-01-23T05:11:48.381Z,0
2017-01-23T05:12:28.932Z,0
2017-01-23T05:13:09.562Z,0
2017-01-23T05:13:50.204Z,0
2017-01-23T05:14:30.792Z,0
2017-01-23T05:15:11.353Z,0
2017-01-23T05:15:51.953Z,0
2017-01-23T05:16:32.599Z,0
2017-01-23T05:17:13.199Z,0
2017-01-23T05:17:53.769Z,0
2017-01-23T05:18:34.369Z,0
2017-01-23T05:19:15.017Z,0
2017-01-23T05:19:55.613Z,0
2017-01-23T05:20:36.152Z,0
2017-01-23T05:21:16.754Z,0
2017-01-23T05:21:57.429Z,0
2017-01-23T05:22:38.008Z,0
2017-01-23T05:23:18.573Z,0
2017-01-23T05:23:59.181Z,0
2017-01-23T05:24:39.826Z,0
2017-01-23T05:25:20.418Z,0
2017-01-23T05:26:00.989Z,0
2017-01-23T05:26:41.576Z,0
2017-01-23T05:27:22.238Z,0
2017-01-23T05:28:02.826Z,0
2017-01-23T05:28:43.402Z,0
2017-01-23T05:29:23.994Z,0
2017-01-23T05:30:04.652Z,0
2017-01-23T05:30:45.337Z,0
2017-01-23T05:31:25.909Z,0
2017-01-23T05:32:06.530Z,0
2017-01-23T05:32:47.167Z,0
2017-01-23T05:33:27.844Z,0
2017-01-23T05:34:08.413Z,0
2017-01-23T05:34:49.009Z,0
2017-01-23T05:35:29.652Z,0
2017-01-23T05:36:10.306Z,0
2017-01-23T05:36:51.979Z,0
2017-01-23T05:37:32.645Z,0
2017-01-23T05:38:14.349Z,0
2017-01-23T05:38:54.964Z,0
2017-01-23T05:39:35.532Z,0
2017-01-23T05:40:16.173Z,0
2017-01-23T05:40:56.829Z,0
2017-01-23T05:41:37.418Z,0
2017-01-23T05:42:18.022Z,0
2017-01-23T05:42:58.704Z,0
2017-01-23T05:43:39.266Z,0
2017-01-23T05:44:19.890Z,0
2017-01-23T05:45:00.549Z,0
2017-01-23T05:45:41.194Z,0
2017-01-23T05:46:21.859Z,0
2017-01-23T05:47:02.507Z,0
2017-01-23T05:47:43.144Z,0
2017-01-23T05:48:23.803Z,0
2017-01-23T05:49:04.452Z,0
2017-01-23T05:49:45.056Z,0
2017-01-23T05:50:25.633Z,0
2017-01-23T05:51:06.199Z,0
2017-01-23T05:51:46.868Z,0
2017-01-23T05:52:27.562Z,0
2017-01-23T05:53:08.105Z,0
2017-01-23T05:53:48.723Z,0
2017-01-23T05:54:29.379Z,0
2017-01-23T05:55:09.932Z,0
2017-01-23T05:55:50.573Z,0
2017-01-23T05:56:31.220Z,0
2017-01-23T05:57:11.807Z,0
2017-01-23T05:57:52.368Z,0
2017-01-23T05:58:32.975Z,0
2017-01-23T05:59:13.557Z,0
2017-01-23T05:59:55.223Z,0
2017-01-23T06:00:36.880Z,0
2017-01-23T06:01:18.453Z,0
2017-01-23T06:01:59.104Z,0
2017-01-23T06:02:39.756Z,0
2017-01-23T06:03:20.446Z,0
2017-01-23T06:04:01.080Z,0
2017-01-23T06:04:42.740Z,0
2017-01-23T06:05:23.409Z,0
2017-01-23T06:06:03.995Z,0
2017-01-23T06:06:44.559Z,0
2017-01-23T06:07:25.147Z,0
2017-01-23T06:08:05.813Z,0
2017-01-23T06:08:47.432Z,0
2017-01-23T06:09:27.983Z,0
2017-01-23T06:10:08.593Z,0
2017-01-23T06:10:49.244Z,0
2017-01-23T06:11:29.829Z,0
2017-01-23T06:12:10.404Z,0
2017-01-23T06:12:51.000Z,0
2017-01-23T06:13:31.671Z,0
2017-01-23T06:14:12.349Z,0
2017-01-23T06:14:52.904Z,0
2017-01-23T06:15:33.552Z,0
2017-01-23T06:16:14.162Z,0
2017-01-23T06:16:54.747Z,0
2017-01-23T06:17:35.320Z,0
2017-01-23T06:18:15.917Z,0
2017-01-23T06:18:56.603Z,0
2017-01-23T06:19:37.164Z,0
2017-01-23T06:20:17.768Z,0
2017-01-23T06:20:58.431Z,0
2017-01-23T06:21:40.039Z,0
2017-01-23T06:22:20.617Z,0
2017-01-23T06:23:01.188Z,0
2017-01-23T06:23:41.860Z,0
2017-01-23T06:24:22.446Z,0
2017-01-23T06:25:03.053Z,0
2017-01-23T06:25:43.721Z,0
2017-01-23T06:26:24.372Z,0
2017-01-23T06:27:05.007Z,0
2017-01-23T06:27:45.673Z,0
2017-01-23T06:28:26.327Z,0
2017-01-23T06:29:06.995Z,0
2017-01-23T06:29:47.635Z,0
2017-01-23T06:30:28.209Z,0
2017-01-23T06:31:08.833Z,0
2017-01-23T06:31:49.519Z,0
2017-01-23T06:32:30.084Z,0
2017-01-23T06:33:10.772Z,0
2017-01-23T06:33:51.482Z,0
2017-01-23T06:34:32.137Z,0
2017-01-23T06:35:12.789Z,0
2017-01-23T06:35:53.443Z,0
2017-01-23T06:36:34.101Z,0
2017-01-23T06:37:14.747Z,0
2017-01-23T06:37:55.400Z,0
2017-01-23T06:38:36.053Z,0
2017-01-23T06:39:16.722Z,0
2017-01-23T06:39:57.361Z,0
2017-01-23T06:40:38.012Z,0
2017-01-23T06:41:18.666Z,0
2017-01-23T06:41:59.323Z,0
2017-01-23T06:42:39.972Z,0
2017-01-23T06:43:20.624Z,0
2017-01-23T06:44:01.278Z,0
2017-01-23T06:44:41.930Z,0
2017-01-23T06:45:22.582Z,0
2017-01-23T06:46:03.237Z,0
2017-01-23T06:46:43.887Z,0
2017-01-23T06:47:24.543Z,0
2017-01-23T06:48:05.196Z,0
2017-01-23T06:48:45.846Z,0
2017-01-23T06:49:26.498Z,0
2017-01-23T06:50:07.240Z,0
2017-01-23T06:50:47.882Z,0
2017-01-23T06:51:28.513Z,0
2017-01-23T06:52:09.175Z,0
2017-01-23T06:52:49.835Z,0
2017-01-23T06:53:30.473Z,0
2017-01-23T06:54:11.135Z,0
2017-01-23T06:54:51.827Z,0
2017-01-23T06:55:32.396Z,0
2017-01-23T06:56:13.078Z,0
2017-01-23T06:56:55.786Z,0
2017-01-23T06:57:36.483Z,0
2017-01-23T06:58:17.034Z,0
2017-01-23T06:58:57.750Z,0
2017-01-23T06:59:38.394Z,0
2017-01-23T07:00:19.098Z,0
2017-01-23T07:00:59.681Z,0
2017-01-23T07:01:40.366Z,0
2017-01-23T07:02:21.012Z,0
2017-01-23T07:03:01.707Z,0
2017-01-23T07:03:42.277Z,0
2017-01-23T07:04:22.980Z,0
2017-01-23T07:05:03.627Z,0
2017-01-23T07:05:44.324Z,0
2017-01-23T07:06:24.887Z,0
2017-01-23T07:07:05.574Z,0
2017-01-23T07:07:46.236Z,0
2017-01-23T07:08:26.937Z,0
2017-01-23T07:09:07.500Z,0
2017-01-23T07:09:48.211Z,0
2017-01-23T07:10:28.867Z,0
2017-01-23T07:11:09.506Z,0
2017-01-23T07:11:50.144Z,0
2017-01-23T07:12:30.804Z,0
2017-01-23T07:13:12.495Z,0
2017-01-23T07:13:53.132Z,0
2017-01-23T07:14:33.796Z,0
2017-01-23T07:15:14.484Z,0
2017-01-23T07:15:55.048Z,0
2017-01-23T07:16:35.747Z,0
2017-01-23T07:17:16.403Z,0
2017-01-23T07:17:57.093Z,0
2017-01-23T07:18:37.663Z,0
2017-01-23T07:19:18.372Z,0
2017-01-23T07:19:59.019Z,0
2017-01-23T07:20:39.679Z,0
2017-01-23T07:21:20.317Z,0
2017-01-23T07:22:00.984Z,0
2017-01-23T07:22:41.620Z,0
2017-01-23T07:23:22.273Z,0
2017-01-23T07:24:02.921Z,0
2017-01-23T07:24:43.593Z,0
2017-01-23T07:25:24.278Z,0
2017-01-23T07:26:04.837Z,0
2017-01-23T07:26:45.556Z,0
2017-01-23T07:27:26.205Z,0
2017-01-23T07:28:06.890Z,0
2017-01-23T07:28:47.459Z,0
2017-01-23T07:29:28.173Z,0
2017-01-23T07:30:09.873Z,0
2017-01-23T07:30:50.578Z,0
2017-01-23T07:31:32.265Z,0
2017-01-23T07:32:14.968Z,0
2017-01-23T07:32:55.615Z,0
2017-01-23T07:33:37.297Z,0
2017-01-23T07:34:17.952Z,0
2017-01-23T07:34:59.637Z,0
2017-01-23T07:35:40.322Z,0
2017-01-23T07:36:21.039Z,0
2017-01-23T07:37:01.676Z,0
2017-01-23T07:37:42.340Z,0
2017-01-23T07:38:23.002Z,0
2017-01-23T07:39:03.660Z,0
2017-01-23T07:39:45.517Z,5
2017-01-23T07:40:26.223Z,5
2017-01-23T07:41:06.765Z,5
2017-01-23T07:41:47.475Z,5
2017-01-23T07:42:28.029Z,5
2017-01-23T07:43:08.724Z,5
2017-01-23T07:43:49.458Z,5
2017-01-23T07:44:29.987Z,5
2017-01-23T07:45:10.632Z,5
2017-01-23T07:45:51.292Z,5
2017-01-23T07:46:31.998Z,5
2017-01-23T07:47:12.562Z,5
2017-01-23T07:47:54.285Z,5
2017-01-23T07:48:34.920Z,5
2017-01-23T07:49:15.632Z,5
2017-01-23T07:49:56.262Z,5
2017-01-23T07:50:36.879Z,5
2017-01-23T07:51:17.561Z,5
2017-01-23T07:51:58.243Z,5
2017-01-23T07:52:38.793Z,5
2017-01-23T07:53:19.499Z,5
2017-01-23T07:54:01.178Z,5
2017-01-23T07:54:41.880Z,5
2017-01-23T07:55:22.450Z,5
2017-01-23T07:56:03.131Z,5
2017-01-23T07:56:43.888Z,5
2017-01-23T07:57:24.594Z,5
2017-01-23T07:58:05.156Z,5
2017-01-23T07:58:45.864Z,5
2017-01-23T07:59:26.512Z,5
2017-01-23T08:00:07.121Z,5
2017-01-23T08:00:48.851Z,5
2017-01-23T08:01:30.515Z,5
2017-01-23T08:02:11.080Z,5
2017-01-23T08:02:51.825Z,5
2017-01-23T08:03:32.485Z,5
2017-01-23T08:04:13.037Z,10
2017-01-23T08:04:53.684Z,10
2017-01-23T08:05:34.334Z,10
2017-01-23T08:06:16.055Z,10
2017-01-23T08:06:56.614Z,10
2017-01-23T08:07:37.323Z,10
2017-01-23T08:08:18.029Z,10
2017-01-23T08:08:58.669Z,10
2017-01-23T08:09:39.228Z,10
2017-01-23T08:10:19.833Z,10
2017-01-23T08:11:00.471Z,10
2017-01-23T08:11:41.168Z,10
2017-01-23T08:12:21.738Z,10
2017-01-23T08:13:02.417Z,10
2017-01-23T08:13:43.106Z,10
2017-01-23T08:14:24.599Z,10
2017-01-23T08:15:05.178Z,15
2017-01-23T08:15:45.852Z,15
2017-01-23T08:16:26.514Z,15
2017-01-23T08:17:07.162Z,15
2017-01-23T08:17:47.845Z,15
2017-01-23T08:18:28.599Z,15
2017-01-23T08:19:09.366Z,15
2017-01-23T08:19:50.079Z,15
2017-01-23T08:20:30.758Z,15
2017-01-23T08:21:11.398Z,15
2017-01-23T08:21:53.104Z,15
2017-01-23T08:22:33.834Z,15
2017-01-23T08:23:14.494Z,15
2017-01-23T08:23:55.148Z,15
2017-01-23T08:24:35.893Z,20
2017-01-23T08:25:16.605Z,20
2017-01-23T08:25:57.165Z,20
2017-01-23T08:26:37.842Z,20
2017-01-23T08:27:18.502Z,20
2017-01-23T08:27:59.196Z,15
2017-01-23T08:28:39.774Z,15
2017-01-23T08:29:20.488Z,15
2017-01-23T08:30:01.127Z,15
2017-01-23T08:30:42.226Z,15
2017-01-23T08:31:22.797Z,15
2017-01-23T08:32:03.490Z,15
2017-01-23T08:32:44.145Z,20
2017-01-23T08:33:24.831Z,20
2017-01-23T08:34:05.422Z,20
2017-01-23T08:34:46.094Z,25
2017-01-23T08:35:26.758Z,25
2017-01-23T08:36:07.397Z,25
2017-01-23T08:36:49.288Z,25
2017-01-23T08:37:29.932Z,25
2017-01-23T08:38:11.615Z,25
2017-01-23T08:38:53.325Z,25
2017-01-23T08:39:35.076Z,25
2017-01-23T08:40:15.657Z,25
2017-01-23T08:40:56.280Z,25
2017-01-23T08:41:37.038Z,25
2017-01-23T08:42:17.613Z,25
2017-01-23T08:42:58.321Z,25
2017-01-23T08:43:39.098Z,25
2017-01-23T08:44:19.699Z,25
2017-01-23T08:45:00.410Z,25
2017-01-23T08:45:42.072Z,25
2017-01-23T08:46:22.766Z,25
2017-01-23T08:47:03.328Z,25
2017-01-23T08:47:44.011Z,25
2017-01-23T08:48:24.688Z,25
2017-01-23T08:49:05.376Z,25
2017-01-23T08:49:45.972Z,25
2017-01-23T08:50:26.649Z,30
2017-01-23T08:51:07.198Z,30
2017-01-23T08:51:47.947Z,30
2017-01-23T08:52:28.702Z,30
2017-01-23T08:53:09.279Z,30
2017-01-23T08:53:50.120Z,30
2017-01-23T08:54:31.794Z,35
2017-01-23T08:55:12.369Z,30
2017-01-23T08:55:54.097Z,30
2017-01-23T08:56:34.776Z,30
2017-01-23T08:57:15.464Z,30
2017-01-23T08:57:56.087Z,30
2017-01-23T08:58:36.894Z,35
2017-01-23T08:59:17.593Z,30
2017-01-23T08:59:58.280Z,30
2017-01-23T09:00:38.933Z,30
2017-01-23T09:01:20.608Z,30
2017-01-23T09:02:01.261Z,30
2017-01-23T09:02:42.018Z,35
2017-01-23T09:03:22.674Z,35
2017-01-23T09:04:03.425Z,35
2017-01-23T09:04:44.084Z,30
2017-01-23T09:05:24.726Z,30
2017-01-23T09:06:05.476Z,30
2017-01-23T09:06:46.020Z,30
2017-01-23T09:07:26.766Z,30
2017-01-23T09:08:07.501Z,35
2017-01-23T09:08:48.077Z,35
2017-01-23T09:09:28.794Z,35
2017-01-23T09:10:09.569Z,35
2017-01-23T09:10:50.265Z,35
2017-01-23T09:11:30.994Z,35
2017-01-23T09:12:11.732Z,40
2017-01-23T09:12:54.431Z,40
2017-01-23T09:13:35.224Z,40
2017-01-23T09:14:16.982Z,35
2017-01-23T09:14:57.644Z,40
2017-01-23T09:15:38.382Z,40
2017-01-23T09:16:19.031Z,40
2017-01-23T09:16:59.926Z,40
2017-01-23T09:17:40.638Z,45
2017-01-23T09:18:21.290Z,45
2017-01-23T09:19:01.996Z,45
2017-01-23T09:19:42.697Z,40
2017-01-23T09:20:23.249Z,40
2017-01-23T09:21:03.884Z,40
2017-01-23T09:21:44.573Z,40
2017-01-23T09:22:25.274Z,45
2017-01-23T09:23:05.855Z,45
2017-01-23T09:23:46.534Z,45
2017-01-23T09:24:28.036Z,45
2017-01-23T09:25:08.708Z,45
2017-01-23T09:25:49.420Z,45
2017-01-23T09:26:30.227Z,45
2017-01-23T09:27:11.019Z,45
2017-01-23T09:27:51.810Z,45
2017-01-23T09:28:32.545Z,45
2017-01-23T09:29:13.273Z,45
2017-01-23T09:29:53.924Z,45
2017-01-23T09:30:34.812Z,45
2017-01-23T09:31:16.635Z,45
2017-01-23T09:31:58.349Z,45
2017-01-23T09:32:38.997Z,45
2017-01-23T09:33:19.671Z,45
2017-01-23T09:34:00.414Z,45
2017-01-23T09:34:41.174Z,40
2017-01-23T09:35:21.734Z,40
2017-01-23T09:36:02.383Z,35
2017-01-23T09:36:43.123Z,35
2017-01-23T09:37:23.668Z,35
2017-01-23T09:38:04.373Z,40
2017-01-23T09:38:45.101Z,45
2017-01-23T09:39:25.685Z,45
2017-01-23T09:40:06.431Z,45
2017-01-23T09:40:47.143Z,40
2017-01-23T09:41:29.888Z,40
2017-01-23T09:42:10.612Z,45
2017-01-23T09:42:51.371Z,45
2017-01-23T09:43:32.024Z,45
2017-01-23T09:44:13.689Z,40
2017-01-23T09:44:54.409Z,35
2017-01-23T09:45:35.139Z,35
2017-01-23T09:46:15.861Z,40
2017-01-23T09:46:56.603Z,40
2017-01-23T09:47:37.364Z,40
2017-01-23T09:48:18.125Z,45
2017-01-23T09:48:58.898Z,50
2017-01-23T09:49:39.669Z,55
2017-01-23T09:50:20.439Z,60
2017-01-23T09:51:01.052Z,60
2017-01-23T09:51:41.834Z,55
2017-01-23T09:52:22.571Z,55
2017-01-23T09:53:03.446Z,60
2017-01-23T09:53:44.056Z,60
2017-01-23T09:54:24.824Z,65
2017-01-23T09:55:05.566Z,60
2017-01-23T09:55:46.172Z,60
2017-01-23T09:56:26.901Z,60
2017-01-23T09:57:07.626Z,60
2017-01-23T09:57:48.209Z,60
2017-01-23T09:58:28.953Z,60
2017-01-23T09:59:09.725Z,60